Time,TemperatureF,DewpointF,PressureIn,WindDirection,WindDirectionDegrees,WindSpeedMPH,WindSpeedGustMPH,Humidity,HourlyPrecipIn,Conditions,Clouds,dailyrainin,SolarRadiationWatts/m^2,SoftwareType,DateUTC
2013-03-02 00:01:00,62.0,36.0,-100.00,WSW,246,3.0,12.0,38,0.00,,,0.00,0.000000,,2013-03-02 08:01:00,
2013-03-02 00:32:00,62.0,33.0,-100.00,SSE,152,4.0,13.0,33,0.00,,,0.00,0.000000,,2013-03-02 08:32:00,
2013-03-02 00:42:00,62.0,33.0,-100.00,SSE,152,4.0,13.0,33,0.00,,,0.00,0.000000,,2013-03-02 08:42:00,
2013-03-02 00:52:00,62.0,33.0,-100.00,SSE,152,4.0,13.0,33,0.00,,,0.00,0.000000,,2013-03-02 08:52:00,
2013-03-02 01:01:00,62.0,33.0,-100.00,SSE,152,4.0,13.0,33,0.00,,,0.00,0.000000,,2013-03-02 09:01:00,
2013-03-02 01:32:00,62.0,35.0,-100.00,SSW,198,4.0,13.0,36,0.00,,,-99.99,0.000000,,2013-03-02 09:32:00,
2013-03-02 01:42:00,62.0,35.0,-100.00,SSW,198,4.0,13.0,36,0.00,,,-99.99,0.000000,,2013-03-02 09:42:00,
2013-03-02 01:52:00,62.0,35.0,-100.00,SSW,198,4.0,13.0,36,0.00,,,-99.99,0.000000,,2013-03-02 09:52:00,
2013-03-02 02:01:00,62.0,35.0,-100.00,SSW,198,4.0,13.0,36,0.00,,,-99.99,0.000000,,2013-03-02 10:01:00,
2013-03-02 02:32:00,61.0,35.0,-100.00,WNW,299,3.0,11.0,37,0.00,,,0.00,0.000000,,2013-03-02 10:32:00,
2013-03-02 02:43:00,61.0,35.0,-100.00,WNW,299,3.0,11.0,37,0.00,,,0.00,0.000000,,2013-03-02 10:43:00,
2013-03-02 02:52:00,61.0,35.0,-100.00,WNW,299,3.0,11.0,37,0.00,,,0.00,0.000000,,2013-03-02 10:52:00,
2013-03-02 03:01:00,61.0,35.0,-100.00,WNW,299,3.0,11.0,37,0.00,,,0.00,0.000000,,2013-03-02 11:01:00,
2013-03-02 03:32:00,62.0,35.0,-100.00,South,190,4.0,13.0,37,0.00,,,0.00,0.000000,,2013-03-02 11:32:00,
2013-03-02 03:42:00,62.0,35.0,-100.00,South,190,4.0,13.0,37,0.00,,,0.00,0.000000,,2013-03-02 11:42:00,
2013-03-02 03:52:00,62.0,35.0,-100.00,South,190,4.0,13.0,37,0.00,,,0.00,0.000000,,2013-03-02 11:52:00,
2013-03-02 04:02:00,62.0,35.0,-100.00,South,190,4.0,13.0,37,0.00,,,0.00,0.000000,,2013-03-02 12:02:00,
2013-03-02 04:33:00,60.0,36.0,-100.00,NW,314,2.0,9.0,41,0.00,,,0.00,0.000000,,2013-03-02 12:33:00,
2013-03-02 04:43:00,60.0,36.0,-100.00,NW,314,2.0,9.0,41,0.00,,,0.00,0.000000,,2013-03-02 12:43:00,
2013-03-02 04:53:00,60.0,36.0,-100.00,NW,314,2.0,9.0,41,0.00,,,0.00,0.000000,,2013-03-02 12:53:00,
2013-03-02 05:01:00,60.0,36.0,-100.00,NW,314,2.0,9.0,41,0.00,,,0.00,0.000000,,2013-03-02 13:01:00,
2013-03-02 05:32:00,59.0,37.0,-100.00,SW,235,3.0,7.0,44,0.00,,,-99.99,0.000000,,2013-03-02 13:32:00,
2013-03-02 05:42:00,59.0,37.0,-100.00,SW,235,3.0,7.0,44,0.00,,,-99.99,0.000000,,2013-03-02 13:42:00,
2013-03-02 05:52:00,59.0,37.0,-100.00,SW,235,3.0,7.0,44,0.00,,,-99.99,0.000000,,2013-03-02 13:52:00,
2013-03-02 06:01:00,59.0,37.0,-100.00,SW,235,3.0,7.0,44,0.00,,,-99.99,0.000000,,2013-03-02 14:01:00,
2013-03-02 06:32:00,57.0,39.0,-100.00,NW,305,2.0,5.0,50,0.00,,,0.00,0.000000,,2013-03-02 14:32:00,
2013-03-02 06:42:00,57.0,39.0,-100.00,NW,305,2.0,5.0,50,0.00,,,0.00,0.000000,,2013-03-02 14:42:00,
2013-03-02 06:52:00,57.0,39.0,-100.00,NW,305,2.0,5.0,50,0.00,,,0.00,0.000000,,2013-03-02 14:52:00,
2013-03-02 07:01:00,57.0,39.0,-100.00,NW,305,2.0,5.0,50,0.00,,,0.00,0.000000,,2013-03-02 15:01:00,
2013-03-02 07:32:00,57.0,38.0,-100.00,WNW,297,2.0,5.0,49,0.00,,,0.00,8.000000,,2013-03-02 15:32:00,
2013-03-02 07:42:00,57.0,38.0,-100.00,WNW,297,2.0,5.0,49,0.00,,,0.00,8.000000,,2013-03-02 15:42:00,
2013-03-02 07:52:00,57.0,38.0,-100.00,WNW,297,2.0,5.0,49,0.00,,,0.00,8.000000,,2013-03-02 15:52:00,
2013-03-02 08:01:00,57.0,38.0,-100.00,WNW,297,2.0,5.0,49,0.00,,,0.00,8.000000,,2013-03-02 16:01:00,
2013-03-02 08:32:00,64.0,40.0,-100.00,South,172,3.0,6.0,42,0.00,,,0.00,159.000000,,2013-03-02 16:32:00,
2013-03-02 08:42:00,64.0,40.0,-100.00,South,172,3.0,6.0,42,0.00,,,0.00,159.000000,,2013-03-02 16:42:00,
2013-03-02 08:52:00,64.0,40.0,-100.00,South,172,3.0,6.0,42,0.00,,,0.00,159.000000,,2013-03-02 16:52:00,
2013-03-02 09:32:00,66.0,42.0,-100.00,South,175,2.0,4.0,41,-99.99,,,0.00,294.000000,,2013-03-02 17:32:00,
2013-03-02 10:32:00,71.0,45.0,-100.00,SE,146,1.0,5.0,40,0.00,,,0.00,443.000000,,2013-03-02 18:32:00,
2013-03-02 11:32:00,73.0,44.0,-100.00,SW,225,5.0,10.0,36,-99.99,,,0.00,553.000000,,2013-03-02 19:32:00,
2013-03-02 12:32:00,71.0,46.0,-100.00,East,84,3.0,11.0,41,-99.99,,,0.00,733.000000,,2013-03-02 20:32:00,
2013-03-02 12:42:00,71.0,46.0,-100.00,East,84,3.0,11.0,41,-99.99,,,0.00,733.000000,,2013-03-02 20:42:00,
2013-03-02 12:52:00,71.0,46.0,-100.00,East,84,3.0,11.0,41,-99.99,,,0.00,733.000000,,2013-03-02 20:52:00,
2013-03-02 13:32:00,68.0,43.0,-100.00,North,356,2.0,10.0,41,0.00,,,0.00,536.000000,,2013-03-02 21:32:00,
2013-03-02 13:42:00,68.0,43.0,-100.00,North,356,2.0,10.0,41,0.00,,,0.00,536.000000,,2013-03-02 21:42:00,
2013-03-02 13:52:00,68.0,43.0,-100.00,North,356,2.0,10.0,41,0.00,,,0.00,536.000000,,2013-03-02 21:52:00,
2013-03-02 14:01:00,68.0,43.0,-100.00,North,356,2.0,10.0,41,0.00,,,0.00,536.000000,,2013-03-02 22:01:00,
2013-03-02 14:32:00,72.0,44.0,-100.00,North,357,3.0,7.0,36,0.00,,,-99.99,425.000000,,2013-03-02 22:32:00,
2013-03-02 15:32:00,64.0,45.0,-100.00,SW,228,3.0,11.0,50,-99.99,,,0.00,340.000000,,2013-03-02 23:32:00,
2013-03-02 15:42:00,64.0,45.0,-100.00,SW,228,3.0,11.0,50,-99.99,,,0.00,340.000000,,2013-03-02 23:42:00,
2013-03-02 15:52:00,64.0,45.0,-100.00,SW,228,3.0,11.0,50,-99.99,,,0.00,340.000000,,2013-03-02 23:52:00,
2013-03-02 16:02:00,64.0,45.0,-100.00,SW,228,3.0,11.0,50,-99.99,,,0.00,340.000000,,2013-03-03 00:02:00,
2013-03-02 16:32:00,60.0,50.0,-100.00,NW,315,3.0,6.0,70,0.00,,,0.00,185.000000,,2013-03-03 00:32:00,
2013-03-02 16:42:00,60.0,50.0,-100.00,NW,315,3.0,6.0,70,0.00,,,0.00,185.000000,,2013-03-03 00:42:00,
2013-03-02 16:52:00,60.0,50.0,-100.00,NW,315,3.0,6.0,70,0.00,,,0.00,185.000000,,2013-03-03 00:52:00,
2013-03-02 17:01:00,60.0,50.0,-100.00,NW,315,3.0,6.0,70,0.00,,,0.00,185.000000,,2013-03-03 01:01:00,
2013-03-02 17:32:00,55.0,49.0,-100.00,NW,317,3.0,9.0,81,0.00,,,-99.99,141.000000,,2013-03-03 01:32:00,
2013-03-02 17:42:00,55.0,49.0,-100.00,NW,317,3.0,9.0,81,0.00,,,-99.99,141.000000,,2013-03-03 01:42:00,
2013-03-02 17:52:00,55.0,49.0,-100.00,NW,317,3.0,9.0,81,0.00,,,-99.99,141.000000,,2013-03-03 01:52:00,
2013-03-02 18:01:00,55.0,49.0,-100.00,NW,317,3.0,9.0,81,0.00,,,-99.99,141.000000,,2013-03-03 02:01:00,
2013-03-02 18:32:00,53.0,50.0,-100.00,NNE,18,1.0,6.0,88,0.00,,,0.00,24.000000,,2013-03-03 02:32:00,
2013-03-02 18:42:00,53.0,50.0,-100.00,NNE,18,1.0,6.0,88,0.00,,,0.00,24.000000,,2013-03-03 02:42:00,
2013-03-02 18:52:00,53.0,50.0,-100.00,NNE,18,1.0,6.0,88,0.00,,,0.00,24.000000,,2013-03-03 02:52:00,
2013-03-02 19:01:00,53.0,50.0,-100.00,NNE,18,1.0,6.0,88,0.00,,,0.00,24.000000,,2013-03-03 03:01:00,
2013-03-02 19:32:00,50.0,48.0,-100.00,East,83,1.0,9.0,93,0.00,,,0.00,0.000000,,2013-03-03 03:32:00,
2013-03-02 19:42:00,50.0,48.0,-100.00,East,83,1.0,9.0,93,0.00,,,0.00,0.000000,,2013-03-03 03:42:00,
2013-03-02 19:52:00,50.0,48.0,-100.00,East,83,1.0,9.0,93,0.00,,,0.00,0.000000,,2013-03-03 03:52:00,
2013-03-02 20:01:00,50.0,48.0,-100.00,East,83,1.0,9.0,93,0.00,,,0.00,0.000000,,2013-03-03 04:01:00,
2013-03-02 20:32:00,51.0,49.0,-100.00,NE,35,1.0,5.0,92,0.00,,,0.00,0.000000,,2013-03-03 04:32:00,
2013-03-02 20:42:00,51.0,49.0,-100.00,NE,35,1.0,5.0,92,0.00,,,0.00,0.000000,,2013-03-03 04:42:00,
2013-03-02 20:52:00,51.0,49.0,-100.00,NE,35,1.0,5.0,92,0.00,,,0.00,0.000000,,2013-03-03 04:52:00,
2013-03-02 21:01:00,51.0,49.0,-100.00,NE,35,1.0,5.0,92,0.00,,,0.00,0.000000,,2013-03-03 05:01:00,
2013-03-02 21:32:00,53.0,47.0,-100.00,NE,53,4.0,9.0,79,0.00,,,0.00,0.000000,,2013-03-03 05:32:00,
2013-03-02 21:42:00,53.0,47.0,-100.00,NE,53,4.0,9.0,79,0.00,,,0.00,0.000000,,2013-03-03 05:42:00,
2013-03-02 21:52:00,53.0,47.0,-100.00,NE,53,4.0,9.0,79,0.00,,,0.00,0.000000,,2013-03-03 05:52:00,
2013-03-02 22:01:00,53.0,47.0,-100.00,NE,53,4.0,9.0,79,0.00,,,0.00,0.000000,,2013-03-03 06:01:00,
2013-03-02 22:32:00,52.0,48.0,-100.00,WNW,298,2.0,5.0,87,0.00,,,0.00,0.000000,,2013-03-03 06:32:00,
2013-03-02 22:42:00,52.0,48.0,-100.00,WNW,298,2.0,5.0,87,0.00,,,0.00,0.000000,,2013-03-03 06:42:00,
2013-03-02 22:52:00,52.0,48.0,-100.00,WNW,298,2.0,5.0,87,0.00,,,0.00,0.000000,,2013-03-03 06:52:00,
2013-03-02 23:01:00,52.0,48.0,-100.00,WNW,298,2.0,5.0,87,0.00,,,0.00,0.000000,,2013-03-03 07:01:00,
2013-03-02 23:32:00,53.0,45.0,-100.00,SSW,208,2.0,5.0,73,0.00,,,0.00,0.000000,,2013-03-03 07:32:00,
2013-03-02 23:42:00,53.0,45.0,-100.00,SSW,208,2.0,5.0,73,0.00,,,0.00,0.000000,,2013-03-03 07:42:00,
2013-03-02 23:52:00,53.0,45.0,-100.00,SSW,208,2.0,5.0,73,0.00,,,0.00,0.000000,,2013-03-03 07:52:00,